createdAt,value
2023-04-09T00:01:12.118Z,10.43
2023-04-09T00:03:43.914Z,11.80
2023-04-09T00:06:11.806Z,11.18
2023-04-09T00:08:38.467Z,11.07
2023-04-09T00:11:05.744Z,10.43
2023-04-09T00:13:39.196Z,10.75
2023-04-09T00:16:07.762Z,11.00
2023-04-09T00:18:34.589Z,11.20
2023-04-09T00:21:03.401Z,9.85
2023-04-09T00:23:30.599Z,10.05
2023-04-09T00:25:57.329Z,10.20
2023-04-09T00:28:26.392Z,10.23
2023-04-09T00:30:53.074Z,11.03
2023-04-09T00:33:19.796Z,9.95
2023-04-09T00:35:46.694Z,10.50
2023-04-09T00:38:16.370Z,11.77
2023-04-09T00:40:43.150Z,11.18
2023-04-09T00:43:12.377Z,11.70
2023-04-09T00:45:39.231Z,10.75
2023-04-09T00:48:06.205Z,11.75
2023-04-09T00:50:35.315Z,10.95
2023-04-09T00:53:02.167Z,10.10
2023-04-09T00:55:30.164Z,11.38
2023-04-09T00:57:56.873Z,11.73
2023-04-09T01:00:23.867Z,10.80
2023-04-09T01:02:53.855Z,11.73
2023-04-09T01:08:42.539Z,11.45
2023-04-09T01:11:18.431Z,11.75
2023-04-09T01:13:57.394Z,11.30
2023-04-09T01:16:24.355Z,10.55
2023-04-09T01:18:58.237Z,11.48
2023-04-09T01:21:31.221Z,11.57
2023-04-09T01:24:16.596Z,11.45
2023-04-09T01:27:03.086Z,11.95
2023-04-09T01:29:37.723Z,11.45
2023-04-09T01:32:07.977Z,12.48
2023-04-09T01:34:36.186Z,12.15
2023-04-09T01:37:03.755Z,11.98
2023-04-09T01:39:33.394Z,11.10
2023-04-09T01:42:03.784Z,11.70
2023-04-09T01:44:31.635Z,11.63
2023-04-09T01:47:00.604Z,13.40
2023-04-09T01:49:28.492Z,11.15
2023-04-09T01:52:00.253Z,12.18
2023-04-09T01:54:31.602Z,12.25
2023-04-09T01:57:01.156Z,10.85
2023-04-09T01:59:27.964Z,11.27
2023-04-09T02:02:01.234Z,11.90
2023-04-09T02:04:34.233Z,11.43
2023-04-09T02:07:10.040Z,11.98
2023-04-09T02:09:39.573Z,11.23
2023-04-09T02:12:15.565Z,11.00
2023-04-09T02:14:45.049Z,12.18
2023-04-09T02:17:12.446Z,11.13
2023-04-09T02:19:44.598Z,12.00
2023-04-09T02:22:14.782Z,12.15
2023-04-09T02:24:41.549Z,12.90
2023-04-09T02:27:08.690Z,13.00
2023-04-09T02:29:38.385Z,13.07
2023-04-09T02:32:05.432Z,11.38
2023-04-09T02:34:32.235Z,12.90
2023-04-09T02:36:58.954Z,12.85
2023-04-09T02:39:27.101Z,12.25
2023-04-09T02:41:53.865Z,12.10
2023-04-09T02:44:21.193Z,12.95
2023-04-09T02:46:49.563Z,12.73
2023-04-09T02:49:16.736Z,12.27
2023-04-09T02:51:43.898Z,12.40
2023-04-09T02:54:15.494Z,12.73
2023-04-09T02:56:42.573Z,13.60
2023-04-09T02:59:09.688Z,11.40
2023-04-09T03:01:36.857Z,12.65
2023-04-09T03:04:06.282Z,12.63
2023-04-09T03:06:33.528Z,13.48
2023-04-09T03:09:02.847Z,13.18
2023-04-09T03:11:29.889Z,12.52
2023-04-09T03:13:56.986Z,12.52
2023-04-09T03:16:26.189Z,13.23
2023-04-09T03:18:56.185Z,12.45
2023-04-09T03:21:23.359Z,13.45
2023-04-09T03:23:50.607Z,12.38
2023-04-09T03:26:20.467Z,13.13
2023-04-09T03:28:47.614Z,13.52
2023-04-09T03:31:14.721Z,13.50
2023-04-09T03:33:42.210Z,13.05
2023-04-09T03:36:09.365Z,11.77
2023-04-09T03:38:38.823Z,12.82
2023-04-09T03:41:06.038Z,13.15
2023-04-09T03:43:33.206Z,14.00
2023-04-09T03:46:00.358Z,13.75
2023-04-09T03:48:27.477Z,14.07
2023-04-09T03:50:57.018Z,13.98
2023-04-09T03:53:26.382Z,14.02
2023-04-09T03:55:53.454Z,13.73
2023-04-09T03:58:20.484Z,13.55
2023-04-09T04:00:49.783Z,13.48
2023-04-09T04:03:17.195Z,13.25
2023-04-09T04:05:44.368Z,14.23
2023-04-09T04:08:11.626Z,12.73
2023-04-09T04:10:38.723Z,13.68
2023-04-09T04:13:08.278Z,14.63
2023-04-09T04:15:41.094Z,13.98
2023-04-09T04:18:08.349Z,12.90
2023-04-09T04:20:35.769Z,13.48
2023-04-09T04:23:02.916Z,14.43
2023-04-09T04:25:30.631Z,13.57
2023-04-09T04:27:57.893Z,13.95
2023-04-09T04:30:24.947Z,13.20
2023-04-09T04:32:54.494Z,13.20
2023-04-09T04:35:22.449Z,13.88
2023-04-09T04:37:52.661Z,13.73
2023-04-09T04:40:19.823Z,12.32
2023-04-09T04:42:46.862Z,14.30
2023-04-09T04:45:13.993Z,13.45
2023-04-09T04:47:43.373Z,13.18
2023-04-09T04:50:10.594Z,13.90
2023-04-09T04:52:40.414Z,14.02
2023-04-09T04:55:08.056Z,13.23
2023-04-09T04:57:37.588Z,12.80
2023-04-09T05:00:07.434Z,13.20
2023-04-09T05:02:34.666Z,12.73
2023-04-09T05:05:01.861Z,13.25
2023-04-09T05:07:28.939Z,12.35
2023-04-09T05:09:55.606Z,13.98
2023-04-09T05:12:22.347Z,13.05
2023-04-09T05:14:48.992Z,13.13
2023-04-09T05:17:18.200Z,12.60
2023-04-09T05:19:50.316Z,13.50
2023-04-09T05:22:16.992Z,12.35
2023-04-09T05:24:43.694Z,11.90
2023-04-09T05:27:10.353Z,13.10
2023-04-09T05:29:39.252Z,12.65
2023-04-09T05:32:09.479Z,12.85
2023-04-09T05:34:38.378Z,12.23
2023-04-09T05:37:07.329Z,11.63
2023-04-09T05:39:34.133Z,12.35
2023-04-09T05:42:00.990Z,12.55
2023-04-09T05:44:27.920Z,12.82
2023-04-09T05:46:54.604Z,11.88
2023-04-09T05:49:23.427Z,11.63
2023-04-09T05:51:50.525Z,11.88
2023-04-09T05:54:17.316Z,11.63
2023-04-09T05:56:44.205Z,12.20
2023-04-09T05:59:11.679Z,11.68
2023-04-09T06:01:38.345Z,10.20
2023-04-09T06:04:05.376Z,9.93
2023-04-09T06:06:32.588Z,8.63
2023-04-09T06:08:59.280Z,8.80
2023-04-09T06:11:26.879Z,7.75
2023-04-09T06:13:53.715Z,7.20
2023-04-09T06:16:21.028Z,7.32
2023-04-09T06:18:49.617Z,7.32
2023-04-09T06:21:16.473Z,8.32
2023-04-09T06:23:43.574Z,6.90
2023-04-09T06:26:10.525Z,7.25
2023-04-09T06:28:37.207Z,6.88
2023-04-09T06:31:06.363Z,6.55
2023-04-09T06:33:33.043Z,6.80
2023-04-09T06:35:59.730Z,6.28
2023-04-09T06:38:29.056Z,6.53
2023-04-09T06:40:58.845Z,6.07
2023-04-09T06:43:25.547Z,6.10
2023-04-09T06:45:52.293Z,6.65
2023-04-09T06:48:19.010Z,6.70
2023-04-09T06:50:45.883Z,5.95
2023-04-09T06:53:15.102Z,6.45
2023-04-09T06:55:42.086Z,5.65
2023-04-09T06:58:11.386Z,5.60
2023-04-09T07:00:40.845Z,5.50
2023-04-09T07:03:09.264Z,5.32
2023-04-09T07:05:38.754Z,5.35
2023-04-09T07:08:05.613Z,5.28
2023-04-09T07:10:34.969Z,5.78
2023-04-09T07:13:01.898Z,5.10
2023-04-09T07:15:28.637Z,5.70
2023-04-09T07:17:57.673Z,5.72
2023-04-09T07:20:24.521Z,5.03
2023-04-09T07:22:53.374Z,5.55
2023-04-09T07:25:21.404Z,5.50
2023-04-09T07:27:48.159Z,5.43
2023-04-09T07:30:14.931Z,5.13
2023-04-09T07:32:41.767Z,5.00
2023-04-09T07:35:09.826Z,5.15
2023-04-09T07:37:36.796Z,5.25
2023-04-09T07:40:06.847Z,5.00
2023-04-09T07:42:33.639Z,5.10
2023-04-09T07:45:03.431Z,5.13
2023-04-09T07:47:30.230Z,5.90
2023-04-09T07:49:56.964Z,4.97
2023-04-09T07:52:24.136Z,4.82
2023-04-09T07:54:53.154Z,5.00
2023-04-09T07:57:19.952Z,5.07
2023-04-09T07:59:48.881Z,5.97
2023-04-09T08:02:15.703Z,5.78
2023-04-09T08:04:42.680Z,6.20
2023-04-09T08:07:09.572Z,5.50
2023-04-09T08:09:36.384Z,5.50
2023-04-09T08:12:03.430Z,5.22
2023-04-09T08:14:30.438Z,5.25
2023-04-09T08:16:57.473Z,4.72
2023-04-09T08:19:24.740Z,5.25
2023-04-09T08:21:52.418Z,5.22
2023-04-09T08:24:19.352Z,4.97
2023-04-09T08:26:46.553Z,4.55
2023-04-09T08:29:16.136Z,4.70
2023-04-09T08:31:45.401Z,4.80
2023-04-09T08:34:16.061Z,4.68
2023-04-09T08:36:49.769Z,4.90
2023-04-09T08:39:20.605Z,5.40
2023-04-09T08:41:48.329Z,5.28
2023-04-09T08:44:15.037Z,5.20
2023-04-09T08:46:44.735Z,5.00
2023-04-09T08:49:14.301Z,5.07
2023-04-09T08:51:46.247Z,5.47
2023-04-09T08:54:16.143Z,4.85
2023-04-09T08:59:09.968Z,4.68
2023-04-09T09:01:36.710Z,4.95
2023-04-09T09:04:08.284Z,5.03
2023-04-09T09:06:38.068Z,5.43
2023-04-09T09:09:13.308Z,5.20
2023-04-09T09:11:45.833Z,5.45
2023-04-09T09:14:14.582Z,4.15
2023-04-09T09:17:08.243Z,4.78
2023-04-09T09:19:35.807Z,4.90
2023-04-09T09:22:08.415Z,4.90
2023-04-09T09:24:50.401Z,5.07
2023-04-09T09:27:36.535Z,5.10
2023-04-09T09:30:05.749Z,5.50
2023-04-09T09:32:33.599Z,4.90
2023-04-09T09:35:07.982Z,5.53
2023-04-09T09:37:34.821Z,5.55
2023-04-09T09:40:02.052Z,5.93
2023-04-09T09:42:33.203Z,5.05
2023-04-09T09:45:05.155Z,5.80
2023-04-09T09:47:33.947Z,5.05
2023-04-09T09:50:03.159Z,5.35
2023-04-09T09:52:30.259Z,5.63
2023-04-09T09:55:01.749Z,5.65
2023-04-09T09:57:30.617Z,5.55
2023-04-09T10:00:02.269Z,5.40
2023-04-09T10:02:35.137Z,5.28
2023-04-09T10:05:05.868Z,5.30
2023-04-09T10:07:32.988Z,5.32
2023-04-09T10:10:05.123Z,5.20
2023-04-09T10:12:34.744Z,4.75
2023-04-09T10:15:06.112Z,5.00
2023-04-09T10:17:32.908Z,4.75
2023-04-09T10:20:13.195Z,5.78
2023-04-09T10:22:43.802Z,5.22
2023-04-09T10:25:13.221Z,5.05
2023-04-09T10:27:39.922Z,4.93
2023-04-09T10:30:10.343Z,5.05
2023-04-09T10:32:39.957Z,5.38
2023-04-09T10:37:48.222Z,5.05
2023-04-09T10:40:21.671Z,5.68
2023-04-09T10:42:49.262Z,4.72
2023-04-09T10:45:21.377Z,4.57
2023-04-09T10:47:51.620Z,4.85
2023-04-09T10:50:27.957Z,4.80
2023-04-09T10:52:57.422Z,5.10
2023-04-09T10:55:38.431Z,5.03
2023-04-09T10:58:07.174Z,5.18
2023-04-09T11:00:40.442Z,4.78
2023-04-09T11:03:13.052Z,4.95
2023-04-09T11:05:43.456Z,4.47
2023-04-09T11:08:12.315Z,4.70
2023-04-09T11:10:46.177Z,5.27
2023-04-09T11:13:14.196Z,4.13
2023-04-09T11:15:46.673Z,5.22
2023-04-09T11:18:33.823Z,4.72
2023-04-09T11:21:06.783Z,4.93
2023-04-09T11:23:35.965Z,4.00
2023-04-09T11:26:02.819Z,4.82
2023-04-09T11:28:29.528Z,4.30
2023-04-09T11:30:56.230Z,3.95
2023-04-09T11:33:22.988Z,3.58
2023-04-09T11:35:50.926Z,4.40
2023-04-09T11:38:20.187Z,4.18
2023-04-09T11:40:49.826Z,4.07
2023-04-09T11:45:51.505Z,4.90
2023-04-09T11:48:21.778Z,4.88
2023-04-09T11:50:51.192Z,4.82
2023-04-09T11:53:19.347Z,5.28
2023-04-09T11:55:51.889Z,4.15
2023-04-09T11:58:22.101Z,4.60
2023-04-09T12:00:53.169Z,4.47
2023-04-09T12:03:30.871Z,4.03
2023-04-09T12:06:02.573Z,4.20
2023-04-09T12:08:31.797Z,3.95
2023-04-09T12:11:16.456Z,4.32
2023-04-09T12:13:45.558Z,4.28
2023-04-09T12:16:13.218Z,4.20
2023-04-09T12:18:40.741Z,4.53
2023-04-09T12:21:07.526Z,4.40
2023-04-09T12:23:35.076Z,4.15
2023-04-09T12:26:02.201Z,4.53
2023-04-09T12:28:29.340Z,4.10
2023-04-09T12:30:56.188Z,4.22
2023-04-09T12:33:25.166Z,4.10
2023-04-09T12:35:52.231Z,4.20
2023-04-09T12:38:18.967Z,3.33
2023-04-09T12:40:45.656Z,3.88
2023-04-09T12:43:12.621Z,3.90
2023-04-09T12:45:39.417Z,3.80
2023-04-09T12:48:06.329Z,4.05
2023-04-09T12:50:33.341Z,4.03
2023-04-09T12:53:00.109Z,4.25
2023-04-09T12:55:27.864Z,3.72
2023-04-09T12:57:54.613Z,3.63
2023-04-09T13:00:25.992Z,3.55
2023-04-09T13:02:53.131Z,4.15
2023-04-09T13:05:19.925Z,3.60
2023-04-09T13:07:48.800Z,3.40
2023-04-09T13:10:18.019Z,3.60
2023-04-09T13:12:47.062Z,3.65
2023-04-09T13:15:13.777Z,3.70
2023-04-09T13:17:40.485Z,4.18
2023-04-09T13:20:08.306Z,4.10
2023-04-09T13:22:37.193Z,4.43
2023-04-09T13:25:04.693Z,3.57
2023-04-09T13:27:33.779Z,3.65
2023-04-09T13:30:03.367Z,3.15
2023-04-09T13:34:58.978Z,3.90
2023-04-09T13:37:26.067Z,3.53
2023-04-09T13:39:58.289Z,3.65
2023-04-09T13:42:27.751Z,3.20
2023-04-09T13:44:55.110Z,3.38
2023-04-09T13:47:24.433Z,3.75
2023-04-09T13:49:54.098Z,3.17
2023-04-09T13:52:20.849Z,3.28
2023-04-09T13:54:47.807Z,3.65
2023-04-09T13:57:17.036Z,3.20
2023-04-09T13:59:44.924Z,3.40
2023-04-09T14:02:14.458Z,3.20
2023-04-09T14:07:08.460Z,3.30
2023-04-09T14:09:35.269Z,3.60
2023-04-09T14:12:02.203Z,3.10
2023-04-09T14:14:36.072Z,3.10
2023-04-09T14:17:05.063Z,2.92
2023-04-09T14:19:31.721Z,3.00
2023-04-09T14:21:58.539Z,2.72
2023-04-09T14:24:25.669Z,3.28
2023-04-09T14:26:53.479Z,2.83
2023-04-09T14:29:21.016Z,3.15
2023-04-09T14:31:47.888Z,3.17
2023-04-09T14:34:14.570Z,3.00
2023-04-09T14:36:41.271Z,3.25
2023-04-09T14:39:07.960Z,2.90
2023-04-09T14:41:36.515Z,2.85
2023-04-09T14:44:05.628Z,2.80
2023-04-09T14:46:32.419Z,2.95
2023-04-09T14:48:59.066Z,3.10
2023-04-09T14:51:27.291Z,2.80
2023-04-09T14:53:54.049Z,3.15
2023-04-09T14:56:20.966Z,2.70
2023-04-09T14:58:50.277Z,3.00
2023-04-09T15:01:17.302Z,3.42
2023-04-09T15:03:44.902Z,3.47
2023-04-09T15:06:12.406Z,2.80
2023-04-09T15:08:39.338Z,3.20
2023-04-09T15:11:09.707Z,3.05
2023-04-09T15:13:36.366Z,3.10
2023-04-09T15:16:03.284Z,3.40
2023-04-09T15:18:30.024Z,3.03
2023-04-09T15:20:56.722Z,3.10
2023-04-09T15:23:23.832Z,2.90
2023-04-09T15:25:50.893Z,3.03
2023-04-09T15:28:19.973Z,3.22
2023-04-09T15:30:46.616Z,3.10
2023-04-09T15:33:15.509Z,5.22
2023-04-09T15:35:42.649Z,4.13
2023-04-09T15:38:11.942Z,3.63
2023-04-09T15:40:40.728Z,3.30
2023-04-09T15:43:09.662Z,3.33
2023-04-09T15:45:38.578Z,3.13
2023-04-09T15:48:05.685Z,3.03
2023-04-09T15:50:32.393Z,2.85
2023-04-09T15:52:59.511Z,3.45
2023-04-09T15:55:26.806Z,3.33
2023-04-09T15:57:55.738Z,3.47
2023-04-09T16:00:24.107Z,3.17
2023-04-09T16:02:52.949Z,3.40
2023-04-09T16:05:20.227Z,3.50
2023-04-09T16:07:49.460Z,3.45
2023-04-09T16:10:16.691Z,3.53
2023-04-09T16:12:45.812Z,3.50
2023-04-09T16:15:14.943Z,2.95
2023-04-09T16:17:42.072Z,3.38
2023-04-09T16:20:09.019Z,3.50
2023-04-09T16:22:35.679Z,2.70
2023-04-09T16:25:07.295Z,3.40
2023-04-09T16:27:36.681Z,3.10
2023-04-09T16:30:06.152Z,2.80
2023-04-09T16:32:33.345Z,2.90
2023-04-09T16:35:00.784Z,3.00
2023-04-09T16:37:29.226Z,2.85
2023-04-09T16:39:57.185Z,2.95
2023-04-09T16:42:26.759Z,2.92
2023-04-09T16:44:54.345Z,3.78
2023-04-09T16:47:21.461Z,3.15
2023-04-09T16:49:51.109Z,3.05
2023-04-09T16:52:18.198Z,3.47
2023-04-09T16:54:45.387Z,2.90
2023-04-09T16:57:15.444Z,3.53
2023-04-09T16:59:42.930Z,3.00
2023-04-09T17:02:10.178Z,3.08
2023-04-09T17:04:38.294Z,3.42
2023-04-09T17:07:05.534Z,3.30
2023-04-09T17:09:32.628Z,3.10
2023-04-09T17:12:02.242Z,3.10
2023-04-09T17:14:29.600Z,3.67
2023-04-09T17:16:56.938Z,3.30
2023-04-09T17:19:23.648Z,3.78
2023-04-09T17:21:51.090Z,3.28
2023-04-09T17:24:17.802Z,3.50
2023-04-09T17:26:44.452Z,3.03
2023-04-09T17:29:11.648Z,3.38
2023-04-09T17:31:38.879Z,3.28
2023-04-09T17:34:06.266Z,3.78
2023-04-09T17:36:33.336Z,3.60
2023-04-09T17:39:03.134Z,3.60
2023-04-09T17:43:58.078Z,3.65
2023-04-09T17:46:27.521Z,3.15
2023-04-09T17:48:56.886Z,2.60
2023-04-09T17:51:23.988Z,3.40
2023-04-09T17:53:53.697Z,3.47
2023-04-09T17:56:23.728Z,2.83
2023-04-09T17:58:50.996Z,3.22
2023-04-09T18:01:18.385Z,2.90
2023-04-09T18:03:46.564Z,3.03
2023-04-09T18:06:17.360Z,3.40
2023-04-09T18:08:44.853Z,3.40
2023-04-09T18:11:14.135Z,3.17
2023-04-09T18:13:41.340Z,4.07
2023-04-09T18:16:14.706Z,3.05
2023-04-09T18:18:41.987Z,2.67
2023-04-09T18:21:09.546Z,3.10
2023-04-09T18:23:36.696Z,3.00
2023-04-09T18:26:03.855Z,2.92
2023-04-09T18:28:31.107Z,2.70
2023-04-09T18:30:58.830Z,3.20
2023-04-09T18:33:27.043Z,3.20
2023-04-09T18:35:54.246Z,3.13
2023-04-09T18:38:21.600Z,3.58
2023-04-09T18:40:48.812Z,3.08
2023-04-09T18:43:15.992Z,3.38
2023-04-09T18:45:45.561Z,3.72
2023-04-09T18:48:14.691Z,3.75
2023-04-09T18:50:44.314Z,3.20
2023-04-09T18:53:13.864Z,3.55
2023-04-09T18:55:41.038Z,3.83
2023-04-09T18:58:21.863Z,3.50
2023-04-09T19:00:51.580Z,3.45
2023-04-09T19:03:22.081Z,3.63
2023-04-09T19:05:51.909Z,3.45
2023-04-09T19:08:19.027Z,3.53
2023-04-09T19:10:47.448Z,3.75
2023-04-09T19:13:16.845Z,3.35
2023-04-09T19:15:44.775Z,3.70
2023-04-09T19:18:14.507Z,3.55
2023-04-09T19:20:41.602Z,4.10
2023-04-09T19:23:09.839Z,3.90
2023-04-09T19:25:37.009Z,3.88
2023-04-09T19:28:06.590Z,4.07
2023-04-09T19:30:33.700Z,4.63
2023-04-09T19:33:01.023Z,5.07
2023-04-09T19:35:28.210Z,4.32
2023-04-09T19:37:56.033Z,5.00
2023-04-09T19:40:23.175Z,4.07
2023-04-09T19:42:50.258Z,4.70
2023-04-09T19:45:17.388Z,5.00
2023-04-09T19:47:44.539Z,4.78
2023-04-09T19:50:11.837Z,4.47
2023-04-09T19:52:40.710Z,4.90
2023-04-09T19:55:08.162Z,4.18
2023-04-09T19:57:41.091Z,4.72
2023-04-09T20:00:08.783Z,4.97
2023-04-09T20:02:37.566Z,4.95
2023-04-09T20:05:04.976Z,4.70
2023-04-09T20:07:32.614Z,4.95
2023-04-09T20:09:59.728Z,4.88
2023-04-09T20:12:29.692Z,4.90
2023-04-09T20:14:59.747Z,4.85
2023-04-09T20:17:26.936Z,5.50
2023-04-09T20:19:56.711Z,5.00
2023-04-09T20:22:24.327Z,5.22
2023-04-09T20:24:52.030Z,5.28
2023-04-09T20:27:19.134Z,5.40
2023-04-09T20:29:46.716Z,5.05
2023-04-09T20:32:14.029Z,5.53
2023-04-09T20:34:41.227Z,5.75
2023-04-09T20:37:08.328Z,5.35
2023-04-09T20:39:35.468Z,5.55
2023-04-09T20:42:05.106Z,5.90
2023-04-09T20:44:31.859Z,5.75
2023-04-09T20:46:58.654Z,5.68
2023-04-09T20:49:25.460Z,6.85
2023-04-09T20:51:54.368Z,5.65
2023-04-09T20:54:23.055Z,6.30
2023-04-09T20:56:50.086Z,6.55
2023-04-09T20:59:17.175Z,6.63
2023-04-09T21:01:44.155Z,6.22
2023-04-09T21:04:11.415Z,5.57
2023-04-09T21:06:38.220Z,6.15
2023-04-09T21:09:07.327Z,4.95
2023-04-09T21:11:34.075Z,6.77
2023-04-09T21:14:00.845Z,6.60
2023-04-09T21:16:29.766Z,5.95
2023-04-09T21:18:56.857Z,5.72
2023-04-09T21:21:28.376Z,6.05
2023-04-09T21:23:55.124Z,6.35
2023-04-09T21:26:21.910Z,6.85
2023-04-09T21:28:50.633Z,6.22
2023-04-09T21:31:17.646Z,5.50
2023-04-09T21:33:44.942Z,5.95
2023-04-09T21:36:15.691Z,6.25
2023-04-09T21:38:44.935Z,6.40
2023-04-09T21:41:12.023Z,6.13
2023-04-09T21:43:41.901Z,6.18
2023-04-09T21:46:09.062Z,6.13
2023-04-09T21:48:38.878Z,6.45
2023-04-09T21:51:15.458Z,6.55
2023-04-09T21:53:42.545Z,6.18
2023-04-09T21:56:12.135Z,6.18
2023-04-09T21:58:41.632Z,6.47
2023-04-09T22:01:13.103Z,6.05
2023-04-09T22:03:46.689Z,5.85
2023-04-09T22:06:13.791Z,6.53
2023-04-09T22:08:55.447Z,6.68
2023-04-09T22:11:28.288Z,6.78
2023-04-09T22:13:58.868Z,6.53
2023-04-09T22:16:26.534Z,6.10
2023-04-09T22:18:54.898Z,6.05
2023-04-09T22:21:22.395Z,6.32
2023-04-09T22:23:49.612Z,6.55
2023-04-09T22:26:16.863Z,5.72
2023-04-09T22:28:46.324Z,7.03
2023-04-09T22:31:13.523Z,6.60
2023-04-09T22:33:40.927Z,6.60
2023-04-09T22:36:08.199Z,6.57
2023-04-09T22:38:36.005Z,6.35
2023-04-09T22:41:03.096Z,6.47
2023-04-09T22:43:32.440Z,6.72
2023-04-09T22:45:59.590Z,6.43
2023-04-09T22:48:27.103Z,5.72
2023-04-09T22:50:54.188Z,5.88
2023-04-09T22:53:21.737Z,5.75
2023-04-09T22:55:51.025Z,6.45
2023-04-09T22:58:18.882Z,6.60
2023-04-09T23:00:47.081Z,6.10
2023-04-09T23:03:14.492Z,6.82
2023-04-09T23:05:42.066Z,6.93
2023-04-09T23:08:09.480Z,6.68
2023-04-09T23:10:36.622Z,6.72
2023-04-09T23:13:03.769Z,6.40
2023-04-09T23:15:30.742Z,5.93
2023-04-09T23:17:57.552Z,6.20
2023-04-09T23:20:24.422Z,7.05
2023-04-09T23:22:51.143Z,6.22
2023-04-09T23:25:18.742Z,6.95
2023-04-09T23:27:48.111Z,6.50
2023-04-09T23:30:17.027Z,6.15
2023-04-09T23:32:47.979Z,6.75
2023-04-09T23:35:15.568Z,7.30
2023-04-09T23:37:43.116Z,6.82
2023-04-09T23:40:11.200Z,6.97
2023-04-09T23:42:41.141Z,6.82
2023-04-09T23:45:08.472Z,7.15
2023-04-09T23:47:36.578Z,6.40
2023-04-09T23:50:07.621Z,6.82
2023-04-09T23:52:35.838Z,7.57
2023-04-09T23:55:03.915Z,6.82
2023-04-09T23:57:30.853Z,6.55
2023-04-09T23:59:57.664Z,6.32
